Tetide — IVTN — position and weather

sailwx.info

Track history (hours):
 
Tides and Currents Weather Stations Pressure Air Temp Water Temp Dewpoint Dewpoint Depression Visibility Wind Speed Wind Dir Waves Ship Positions

Tetide

Last reported at 2015-May-28 09:25 UTC. Time now 2015-May-28 12:03 UTC.
Position N 40°48' E 013°26'.

Length 70 m; draft 3.6 m.

Type: Passenger vessel. MMSI: 247043100.

Date/timePositionNaut miles runAvg speedWind from/ knotsBaromVisibWave heightAir tempDewpointWater temp
2015-May-28 09:25N 40°48' E 013°26'1414.2
2015-May-28 08:26N 41°01' E 013°31'8 0.4
2015-May-27 14:32N 41°08' E 013°35'1414.3
2015-May-27 13:33N 40°55' E 013°29'8 7.5
2015-May-27 12:33N 40°48' E 013°26'5 1.5
2015-May-27 09:06N 40°53' E 013°28'814.6
2015-May-27 08:33N 41°00' E 013°31'1614.2
2015-May-27 07:28N 41°15' E 013°37'21 1.2
2015-May-26 13:34N 40°55' E 013°29'7 1.7
2015-May-26 09:17N 40°48' E 013°26'1214.4
2015-May-26 08:28N 40°59' E 013°31'7 0.4
2015-May-25 14:20N 41°06' E 013°34'1214.2
2015-May-25 13:31N 40°55' E 013°29'7 1.6
2015-May-25 09:20N 40°48' E 013°26'1314.2
2015-May-25 08:25N 41°01' E 013°31'13 0.8
2015-May-24 16:23N 41°13' E 013°37'1714.2
2015-May-24 15:13N 40°57' E 013°30'4 0.6
2015-May-24 09:08N 41°01' E 013°31'1413.9
2015-May-24 08:07N 41°14' E 013°37'20 1.1
2015-May-23 13:32N 40°55' E 013°29'8 5.9
2015-May-23 12:15N 40°48' E 013°26'26 5.4
2015-May-23 07:33N 41°12' E 013°37'26 1.2
2015-May-22 09:29N 40°48' E 013°26'2813.1
2015-May-22 07:22N 41°14' E 013°37'14 0.8
2015-May-21 14:15N 41°02' E 013°29'1312.1
2015-May-21 13:09N 40°49' E 013°24'2 3.3
2015-May-21 12:33N 40°48' E 013°26'0 0.1
2015-May-21 09:27N 40°48' E 013°26'28 2.0
2015-May-20 19:14N 41°15' E 013°37'0 0.0
2015-May-20 18:16N 41°15' E 013°37'0 0.0
2015-May-20 17:33N 41°15' E 013°37'0 0.0
2015-May-20 16:27N 41°15' E 013°37'0 0.0
2015-May-20 15:30N 41°15' E 013°37'6 6.8
2015-May-20 14:33N 41°09' E 013°35'1414.3
2015-May-20 13:33N 40°55' E 013°29'8 5.6
2015-May-20 12:10N 40°48' E 013°26'0 0.0
2015-May-20 11:20N 40°48' E 013°26'0 0.0
2015-May-20 10:32N 40°48' E 013°26'0 0.4
2015-May-20 09:17N 40°48' E 013°26'1213.9
2015-May-20 08:26N 40°60' E 013°30'14 3.6
2015-May-20 04:28N 41°00' E 013°12'10 1.0
2015-May-19 18:11N 40°55' E 012°60'913.5
2015-May-19 17:31N 40°60' E 013°10'1713.6
2015-May-19 16:18N 41°09' E 013°28'912.1
2015-May-19 15:33N 41°15' E 013°37'7 6.8
2015-May-19 14:29N 41°08' E 013°35'1314.4
2015-May-19 13:33N 40°56' E 013°29'8 3.8
2015-May-19 11:29N 40°48' E 013°26'0 0.0
2015-May-19 10:33N 40°48' E 013°26'0 0.0
2015-May-19 09:33N 40°48' E 013°26'1313.0
2015-May-19 08:31N 41°01' E 013°31'15 5.0
2015-May-19 05:32N 41°15' E 013°37'0 0.0
2015-May-19 04:24N 41°15' E 013°37'0 0.0
2015-May-19 03:33N 41°15' E 013°37'0 0.0
2015-May-19 02:33N 41°15' E 013°37'0 0.0
2015-May-19 01:26N 41°15' E 013°37'0 0.0
2015-May-19 00:32N 41°15' E 013°37'0 0.0
2015-May-18 23:16N 41°15' E 013°37'0 0.0
2015-May-18 22:33N 41°15' E 013°37'0 0.0
2015-May-18 21:21N 41°15' E 013°37'0 0.0
2015-May-18 20:27N 41°15' E 013°37'0 0.0
2015-May-18 19:31N 41°15' E 013°37'0 0.0
2015-May-18 16:15N 41°15' E 013°37'0 0.0
2015-May-18 15:30N 41°15' E 013°37'7 7.4
2015-May-18 14:33N 41°08' E 013°35'1413.9
2015-May-18 13:34N 40°55' E 013°29'8 7.4
2015-May-18 12:31N 40°48' E 013°26'0 0.0
2015-May-18 11:33N 40°48' E 013°26'0 0.0
2015-May-18 10:32N 40°48' E 013°26'0 0.0
2015-May-18 09:30N 40°48' E 013°26'  
Track history (hours):
 
Tides and Currents Weather Stations Pressure Air Temp Water Temp Dewpoint Dewpoint Depression Visibility Wind Speed Wind Dir Waves Ship Positions

Tetide

Last reported at 2015-May-28 09:25 UTC. Time now 2015-May-28 12:03 UTC.
Position N 40°48' E 013°26'.

Length 70 m; draft 3.6 m.

Type: Passenger vessel. MMSI: 247043100.

Date/timePositionNaut miles runAvg speedWind from/ knotsBaromVisibWave heightAir tempDewpointWater temp
2015-May-28 09:25N 40°48' E 013°26'1414.2
2015-May-28 08:26N 41°01' E 013°31'8 0.4
2015-May-27 14:32N 41°08' E 013°35'1414.3
2015-May-27 13:33N 40°55' E 013°29'8 7.5
2015-May-27 12:33N 40°48' E 013°26'5 1.5
2015-May-27 09:06N 40°53' E 013°28'814.6
2015-May-27 08:33N 41°00' E 013°31'1614.2
2015-May-27 07:28N 41°15' E 013°37'21 1.2
2015-May-26 13:34N 40°55' E 013°29'7 1.7
2015-May-26 09:17N 40°48' E 013°26'1214.4
2015-May-26 08:28N 40°59' E 013°31'7 0.4
2015-May-25 14:20N 41°06' E 013°34'1214.2
2015-May-25 13:31N 40°55' E 013°29'7 1.6
2015-May-25 09:20N 40°48' E 013°26'1314.2
2015-May-25 08:25N 41°01' E 013°31'13 0.8
2015-May-24 16:23N 41°13' E 013°37'1714.2
2015-May-24 15:13N 40°57' E 013°30'4 0.6
2015-May-24 09:08N 41°01' E 013°31'1413.9
2015-May-24 08:07N 41°14' E 013°37'20 1.1
2015-May-23 13:32N 40°55' E 013°29'8 5.9
2015-May-23 12:15N 40°48' E 013°26'26 5.4
2015-May-23 07:33N 41°12' E 013°37'26 1.2
2015-May-22 09:29N 40°48' E 013°26'2813.1
2015-May-22 07:22N 41°14' E 013°37'14 0.8
2015-May-21 14:15N 41°02' E 013°29'1312.1
2015-May-21 13:09N 40°49' E 013°24'2 3.3
2015-May-21 12:33N 40°48' E 013°26'0 0.1
2015-May-21 09:27N 40°48' E 013°26'28 2.0
2015-May-20 19:14N 41°15' E 013°37'0 0.0
2015-May-20 18:16N 41°15' E 013°37'0 0.0
2015-May-20 17:33N 41°15' E 013°37'0 0.0
2015-May-20 16:27N 41°15' E 013°37'0 0.0
2015-May-20 15:30N 41°15' E 013°37'6 6.8
2015-May-20 14:33N 41°09' E 013°35'1414.3
2015-May-20 13:33N 40°55' E 013°29'8 5.6
2015-May-20 12:10N 40°48' E 013°26'0 0.0
2015-May-20 11:20N 40°48' E 013°26'0 0.0
2015-May-20 10:32N 40°48' E 013°26'0 0.4
2015-May-20 09:17N 40°48' E 013°26'1213.9
2015-May-20 08:26N 40°60' E 013°30'14 3.6
2015-May-20 04:28N 41°00' E 013°12'10 1.0
2015-May-19 18:11N 40°55' E 012°60'913.5
2015-May-19 17:31N 40°60' E 013°10'1713.6
2015-May-19 16:18N 41°09' E 013°28'912.1
2015-May-19 15:33N 41°15' E 013°37'7 6.8
2015-May-19 14:29N 41°08' E 013°35'1314.4
2015-May-19 13:33N 40°56' E 013°29'8 3.8
2015-May-19 11:29N 40°48' E 013°26'0 0.0
2015-May-19 10:33N 40°48' E 013°26'0 0.0
2015-May-19 09:33N 40°48' E 013°26'1313.0
2015-May-19 08:31N 41°01' E 013°31'15 5.0
2015-May-19 05:32N 41°15' E 013°37'0 0.0
2015-May-19 04:24N 41°15' E 013°37'0 0.0
2015-May-19 03:33N 41°15' E 013°37'0 0.0
2015-May-19 02:33N 41°15' E 013°37'0 0.0
2015-May-19 01:26N 41°15' E 013°37'0 0.0
2015-May-19 00:32N 41°15' E 013°37'0 0.0
2015-May-18 23:16N 41°15' E 013°37'0 0.0
2015-May-18 22:33N 41°15' E 013°37'0 0.0
2015-May-18 21:21N 41°15' E 013°37'0 0.0
2015-May-18 20:27N 41°15' E 013°37'0 0.0
2015-May-18 19:31N 41°15' E 013°37'0 0.0
2015-May-18 16:15N 41°15' E 013°37'0 0.0
2015-May-18 15:30N 41°15' E 013°37'7 7.4
2015-May-18 14:33N 41°08' E 013°35'1413.9
2015-May-18 13:34N 40°55' E 013°29'8 7.4
2015-May-18 12:31N 40°48' E 013°26'0 0.0
2015-May-18 11:33N 40°48' E 013°26'0 0.0
2015-May-18 10:32N 40°48' E 013°26'0 0.0
2015-May-18 09:30N 40°48' E 013°26'  

Dump ship's entire track history